createdAt,value
2022-09-03T00:01:50.811Z,20.8
2022-09-03T00:21:50.810Z,20.7
2022-09-03T00:41:50.714Z,20.6
2022-09-03T01:01:50.653Z,20.5
2022-09-03T01:21:50.623Z,19.6
2022-09-03T01:41:50.599Z,19.7
2022-09-03T02:01:50.575Z,19.7
2022-09-03T02:21:50.545Z,19.8
2022-09-03T02:41:50.521Z,19.7
2022-09-03T03:01:50.493Z,19.8
2022-09-03T03:21:50.474Z,19.6
2022-09-03T03:41:50.493Z,19.4
2022-09-03T04:01:50.438Z,19.3
2022-09-03T04:21:50.406Z,19.2
2022-09-03T04:41:50.370Z,19.1
2022-09-03T05:01:50.354Z,19.1
2022-09-03T05:21:50.312Z,18.8
2022-09-03T05:41:50.290Z,19.1
2022-09-03T06:01:50.263Z,19.0
2022-09-03T06:21:50.268Z,19.2
2022-09-03T06:41:50.233Z,18.8
2022-09-03T07:01:50.211Z,19.2
2022-09-03T07:21:50.175Z,18.5
2022-09-03T07:41:50.161Z,18.6
2022-09-03T08:01:50.161Z,18.6
2022-09-03T08:41:50.118Z,17.9
2022-09-03T09:01:50.069Z,17.5
2022-09-03T09:21:50.038Z,17.4
2022-09-03T09:41:50.021Z,17.8
2022-09-03T10:01:50.006Z,18.6
2022-09-03T10:21:49.979Z,19.6
2022-09-03T10:41:49.946Z,20.3
2022-09-03T11:01:49.932Z,20.8
2022-09-03T11:21:49.871Z,21.2
2022-09-03T11:41:49.911Z,21.8
2022-09-03T12:01:49.824Z,21.9
2022-09-03T12:21:49.813Z,22.9
2022-09-03T12:41:49.810Z,23.3
2022-09-03T13:01:49.803Z,22.9
2022-09-03T13:21:49.720Z,23.7
2022-09-03T13:41:49.733Z,23.5
2022-09-03T14:01:49.760Z,24.0
2022-09-03T14:21:49.668Z,23.4
2022-09-03T14:41:49.630Z,23.3
2022-09-03T15:01:49.623Z,23.3
2022-09-03T15:21:49.551Z,22.9
2022-09-03T15:41:49.564Z,22.8
2022-09-03T16:01:49.586Z,22.3
2022-09-03T16:21:49.487Z,21.7
2022-09-03T16:41:49.513Z,21.3
2022-09-03T17:01:49.471Z,21.3
2022-09-03T17:21:49.474Z,21.1
2022-09-03T17:41:49.390Z,21.0
2022-09-03T18:01:49.363Z,20.9
2022-09-03T18:21:49.331Z,20.9
2022-09-03T18:41:49.328Z,20.8
2022-09-03T19:01:49.306Z,20.3
2022-09-03T19:21:49.345Z,20.4
2022-09-03T19:41:49.241Z,20.0
2022-09-03T20:01:49.228Z,19.9
2022-09-03T20:21:49.187Z,19.8
2022-09-03T20:41:49.187Z,19.3
2022-09-03T21:01:49.150Z,18.9
2022-09-03T21:21:49.131Z,19.0
2022-09-03T21:41:49.074Z,18.8
2022-09-03T22:01:49.086Z,18.8
2022-09-03T22:21:49.098Z,18.8
2022-09-03T22:41:49.035Z,18.5
2022-09-03T23:01:48.982Z,18.3
2022-09-03T23:21:48.984Z,18.3
2022-09-03T23:41:48.973Z,18.2
